Terminal Aerodrome Forecast
Issued by NWS

Home | Current Version | Previous Version | Text Only | Print | Product List | Glossary On
Versions: 1 2 3 4 5 6 7 8 9 10 11 12 13 14 15 16 17 18 19 20 21
000
FTUS41 KBGM 191800 AAA
TAFELM
TAF AMD
KELM 191839Z 1919/2018 04011G20KT P6SM SCT300
     FM192000 36012G20KT P6SM SCT050
     FM200100 VRB03KT P6SM FEW300
     FM201400 16007KT P6SM SCT300=

USA.gov is the U.S. government's official web portal to all federal, state and local government web resources and services.